Flight Track Log - Related Links

Times and Time Zones

All times are in EDT time to prevent confusion due to time zone crossing. See the SWR1957 flight status page for this flight to view local times or setup timezone preferences in your user account.

Time Position Orientation Groundspeed Altitude Reporting Facility
EDT Latitude Longitude Course Direction KTS MPH feet Rate Location/Type
Sun 02:13:52 PM 41.7568 2.5050 35° Northeast  Level Estimated
Sun 02:14:52 PM 41.8511 2.5933 35° Northeast  Level Estimated
Sun 02:15:52 PM 41.9453 2.6820 35° Northeast  Level Estimated
Sun 02:16:52 PM 42.0394 2.7709 35° Northeast  Level Estimated
Sun 02:17:52 PM 42.1335 2.8601 35° Northeast  Level Estimated
Sun 02:18:52 PM 42.2275 2.9495 35° Northeast  Level Estimated
Sun 02:19:52 PM 42.3214 3.0392 35° Northeast  Level Estimated
Sun 02:20:52 PM 42.4153 3.1292 35° Northeast  Level Estimated
Sun 02:21:52 PM 42.5091 3.2195 35° Northeast  Level Estimated
Sun 02:22:52 PM 42.6028 3.3100 35° Northeast  Level Estimated
Sun 02:23:52 PM 42.6964 3.4008 36° Northeast  Level Estimated
Sun 02:24:52 PM 42.7900 3.4918 36° Northeast  Level Estimated
Sun 02:25:52 PM 42.8835 3.5832 36° Northeast  Level Estimated
Sun 02:26:52 PM 42.9769 3.6748 36° Northeast  Level Estimated
Sun 02:27:52 PM 43.0703 3.7667 36° Northeast  Level Estimated
Sun 02:28:52 PM 43.1636 3.8589 36° Northeast  Level Estimated
Sun 02:29:52 PM 43.2568 3.9513 36° Northeast  Level Estimated
Sun 02:30:52 PM 43.3499 4.0441 36° Northeast  Level Estimated
Sun 02:31:52 PM 43.4430 4.1371 36° Northeast  Level Estimated
Sun 02:32:52 PM 43.5359 4.2304 36° Northeast  Level Estimated
Sun 02:33:52 PM 43.6288 4.3240 36° Northeast  Level Estimated
Sun 02:34:52 PM 43.7217 4.4179 36° Northeast  Level Estimated
Sun 02:35:52 PM 43.8144 4.5121 36° Northeast  Level Estimated
Sun 02:36:52 PM 43.9071 4.6066 36° Northeast  Level Estimated
Sun 02:37:52 PM 43.9997 4.7013 36° Northeast  Level Estimated
Sun 02:38:52 PM 44.0922 4.7964 36° Northeast  Level Estimated
Sun 02:39:52 PM 44.1846 4.8917 37° Northeast  Level Estimated
Sun 02:40:52 PM 44.2770 4.9874 37° Northeast  Level Estimated
Sun 02:41:52 PM 44.3693 5.0834 37° Northeast  Level Estimated
Sun 02:42:52 PM 44.4615 5.1796 37° Northeast  Level Estimated
Sun 02:43:52 PM 44.5536 5.2762 37° Northeast  Level Estimated
Sun 02:44:52 PM 44.6456 5.3731 37° Northeast  Level Estimated
Sun 02:45:52 PM 44.7376 5.4703 37° Northeast  Level Estimated
Sun 02:46:52 PM 44.8294 5.5678 37° Northeast  Level Estimated
Sun 02:47:52 PM 44.9212 5.6656 37° Northeast  Level Estimated
Sun 02:48:52 PM 45.0129 5.7637 37° Northeast  Level Estimated
Sun 02:49:52 PM 45.1045 5.8621 37° Northeast  Level Estimated
Sun 02:50:52 PM 45.1961 5.9609 37° Northeast  Level Estimated
Sun 02:51:52 PM 45.2875 6.0599 37° Northeast  Level Estimated
Sun 02:52:52 PM 45.3789 6.1593 37° Northeast  Level Estimated
Sun 02:53:52 PM 45.4702 6.2590 38° Northeast  Level Estimated
Sun 02:54:52 PM 45.5614 6.3591 38° Northeast  Level Estimated
Sun 02:55:52 PM 45.6525 6.4594 38° Northeast  Level Estimated
Sun 02:56:52 PM 45.7435 6.5601 38° Northeast  Level Estimated
Sun 02:57:52 PM 45.8344 6.6611 38° Northeast  Level Estimated
Sun 02:58:52 PM 45.9252 6.7625 38° Northeast  Level Estimated
Sun 02:59:52 PM 46.0160 6.8641 38° Northeast  Level Estimated
Sun 03:00:52 PM 46.1066 6.9661 38° Northeast  Level Estimated
Sun 03:01:52 PM 46.1972 7.0685 38° Northeast  Level Estimated
Sun 03:02:52 PM 46.2876 7.1712 38° Northeast  Level Estimated
Sun 03:03:52 PM 46.3780 7.2742 38° Northeast  Level Estimated
Sun 03:04:52 PM 46.4683 7.3776 38° Northeast  Level Estimated
Sun 03:05:52 PM 46.5585 7.4813 38° Northeast  Level Estimated
Sun 03:06:52 PM 46.6486 7.5853 38° Northeast  Level Estimated
Sun 03:07:52 PM 46.7249 7.6738 39° Northeast  Level Estimated
Sun 03:08:52 PM 46.8012 7.7626 39° Northeast  Level Estimated
Sun 03:09:52 PM 46.8755 7.8494 39° Northeast  Level Estimated
Sun 03:10:52 PM 46.9480 7.9344 39° Northeast  Level Estimated
Sun 03:11:52 PM 47.0204 8.0196 39° Northeast  Level Estimated
Sun 03:12:52 PM 47.0927 8.1050 39° Northeast  Level Estimated
Sun 03:13:52 PM 47.1668 8.1928 39° Northeast  Level Estimated
Sun 03:14:52 PM 47.2408 8.2808 39° Northeast  Level Estimated
Sun 03:15:52 PM 47.3147 8.3690 39° Northeast  Level Estimated
Sun 03:16:52 PM 47.3886 8.4576 39° Northeast  Level Estimated
Sun 03:17:52 PM 47.4623 8.5463 39° Northeast  Level Estimated
Sun 03:18:52 PM 47.5361 8.6353 219° Southwest  Level Estimated
Sun 03:19:52 PM 47.4623 8.5463 39° Northeast  Level Estimated
Sun 03:20:52 PM 47.5379 8.6375 219° Southwest  Level Estimated
Sun 03:21:52 PM 47.4623 8.5463 39° Northeast  Level Estimated
Sun 03:22:52 PM 47.5379 8.6375 219° Southwest  Level Estimated
Sun 03:23:52 PM 47.4623 8.5463 39° Northeast  Level Estimated
Sun 03:24:52 PM 47.5409 8.6411 219° Southwest  Level Estimated
Sun 03:25:52 PM 47.4623 8.5463 39° Northeast  Level Estimated
Sun 03:26:52 PM 47.5389 8.6387 219° Southwest  Level Estimated
Sun 03:27:52 PM 47.4623 8.5463 39° Northeast  Level Estimated
Sun 03:28:52 PM 47.5389 8.6387 219° Southwest  Level Estimated
Sun 03:29:52 PM 47.4623 8.5463 39° Northeast  Level Estimated
Sun 03:30:52 PM 47.5389 8.6387 219° Southwest  Level Estimated
Sun 03:31:52 PM 47.4593 8.5426 39° Northeast  Level Estimated
Sun 03:32:52 PM 47.5389 8.6387 219° Southwest  Level Estimated
Sun 03:33:52 PM 47.4593 8.5426 39° Northeast  Level Estimated
Sun 03:34:52 PM 47.5389 8.6387 219° Southwest  Level Estimated
Sun 03:35:52 PM 47.4593 8.5426 39° Northeast  Level Estimated
Sun 03:36:52 PM 47.5389 8.6387 219° Southwest  Level Estimated
Sun 03:37:52 PM 47.4593 8.5426 39° Northeast  Level Estimated
Sun 03:38:52 PM 47.5389 8.6387 219° Southwest  Level Estimated
Sun 03:39:52 PM 47.4593 8.5426 219° Southwest  Level Estimated

Login

Don't have an account? Register now (free) for customized features, flight alerts, and more!